createdAt,value
2018-07-09T00:02:38.968Z,53.63
2018-07-09T00:05:43.274Z,53.32
2018-07-09T00:08:46.704Z,53.66
2018-07-09T00:11:49.971Z,54.15
2018-07-09T00:14:53.175Z,54.52
2018-07-09T00:17:56.362Z,54.47
2018-07-09T00:20:59.566Z,55.40
2018-07-09T00:24:02.803Z,55.62
2018-07-09T00:27:06.063Z,55.53
2018-07-09T00:30:09.287Z,55.26
2018-07-09T00:33:12.444Z,55.57
2018-07-09T00:36:15.651Z,56.19
2018-07-09T00:39:18.827Z,56.17
2018-07-09T00:42:22.113Z,56.67
2018-07-09T00:45:25.351Z,56.76
2018-07-09T00:48:28.953Z,57.21
2018-07-09T00:51:32.411Z,57.46
2018-07-09T00:54:35.570Z,57.62
2018-07-09T00:57:38.776Z,58.68
2018-07-09T01:00:41.997Z,58.47
2018-07-09T01:03:45.148Z,58.48
2018-07-09T01:06:48.322Z,58.29
2018-07-09T01:09:51.515Z,58.47
2018-07-09T01:12:54.674Z,58.21
2018-07-09T01:15:57.862Z,59.07
2018-07-09T01:19:01.094Z,58.95
2018-07-09T01:22:04.823Z,59.25
2018-07-09T01:25:07.935Z,59.31
2018-07-09T01:28:11.124Z,59.36
2018-07-09T01:31:14.319Z,59.69
2018-07-09T01:34:17.503Z,60.01
2018-07-09T01:37:20.698Z,60.24
2018-07-09T01:40:23.867Z,60.65
2018-07-09T01:43:27.068Z,61.29
2018-07-09T01:46:30.258Z,61.35
2018-07-09T01:49:33.426Z,61.98
2018-07-09T01:52:36.607Z,62.29
2018-07-09T01:55:39.764Z,63.30
2018-07-09T01:58:43.024Z,62.80
2018-07-09T02:01:46.866Z,63.59
2018-07-09T02:04:50.018Z,63.38
2018-07-09T02:07:53.519Z,63.29
2018-07-09T02:10:56.703Z,63.18
2018-07-09T02:13:59.954Z,63.89
2018-07-09T02:17:03.128Z,63.80
2018-07-09T02:20:06.410Z,63.93
2018-07-09T02:23:09.603Z,63.93
2018-07-09T02:26:12.767Z,64.50
2018-07-09T02:29:15.981Z,65.16
2018-07-09T02:32:19.153Z,64.96
2018-07-09T02:35:22.298Z,64.75
2018-07-09T02:38:25.512Z,64.71
2018-07-09T02:41:28.751Z,64.60
2018-07-09T02:44:31.964Z,63.28
2018-07-09T02:47:35.193Z,63.83
2018-07-09T02:50:38.373Z,63.46
2018-07-09T02:53:41.563Z,63.01
2018-07-09T02:56:44.722Z,62.61
2018-07-09T02:59:47.992Z,62.60
2018-07-09T03:02:51.214Z,63.40
2018-07-09T03:05:54.410Z,63.69
2018-07-09T03:08:57.589Z,63.36
2018-07-09T03:12:00.819Z,64.30
2018-07-09T03:15:04.070Z,64.25
2018-07-09T03:18:07.215Z,64.49
2018-07-09T03:21:10.433Z,64.40
2018-07-09T03:24:13.811Z,64.57
2018-07-09T03:27:17.119Z,65.02
2018-07-09T03:30:20.532Z,64.52
2018-07-09T03:33:23.720Z,64.63
2018-07-09T03:36:26.968Z,65.12
2018-07-09T03:39:30.173Z,65.23
2018-07-09T03:42:33.386Z,64.65
2018-07-09T03:45:36.595Z,64.92
2018-07-09T03:48:39.790Z,65.61
2018-07-09T03:51:42.949Z,65.95
2018-07-09T03:54:46.204Z,65.80
2018-07-09T03:57:49.349Z,66.13
2018-07-09T04:00:52.607Z,65.78
2018-07-09T04:03:55.802Z,66.37
2018-07-09T04:06:58.982Z,66.81
2018-07-09T04:10:02.153Z,66.77
2018-07-09T04:13:05.287Z,66.67
2018-07-09T04:16:08.441Z,66.66
2018-07-09T04:19:11.630Z,66.19
2018-07-09T04:22:14.785Z,65.86
2018-07-09T04:25:18.021Z,66.01
2018-07-09T04:28:21.912Z,66.05
2018-07-09T04:31:25.086Z,65.67
2018-07-09T04:34:28.315Z,65.39
2018-07-09T04:37:31.613Z,65.51
2018-07-09T04:40:34.807Z,64.86
2018-07-09T04:43:38.033Z,64.85
2018-07-09T04:46:41.326Z,65.10
2018-07-09T04:49:44.589Z,65.42
2018-07-09T04:52:47.712Z,64.74
2018-07-09T04:55:51.000Z,64.89
2018-07-09T04:58:54.277Z,65.27
2018-07-09T05:01:57.475Z,65.10
2018-07-09T05:05:00.719Z,64.50
2018-07-09T05:08:04.266Z,64.45
2018-07-09T05:11:07.554Z,64.01
2018-07-09T05:14:10.781Z,63.57
2018-07-09T05:17:14.036Z,64.08
2018-07-09T05:20:17.755Z,63.42
2018-07-09T05:23:20.876Z,63.23
2018-07-09T05:26:24.143Z,63.77
2018-07-09T05:29:27.331Z,63.10
2018-07-09T05:32:30.471Z,63.45
2018-07-09T05:35:33.677Z,62.90
2018-07-09T05:38:36.949Z,62.90
2018-07-09T05:41:40.159Z,62.53
2018-07-09T05:44:43.374Z,61.88
2018-07-09T05:47:46.768Z,62.04
2018-07-09T05:50:50.054Z,62.44
2018-07-09T05:53:53.232Z,61.72
2018-07-09T05:56:56.442Z,62.11
2018-07-09T05:59:59.630Z,60.84
2018-07-09T06:03:02.828Z,61.61
2018-07-09T06:06:06.652Z,62.10
2018-07-09T06:09:10.546Z,60.90
2018-07-09T06:12:13.966Z,61.28
2018-07-09T06:15:17.221Z,60.76
2018-07-09T06:18:20.391Z,61.19
2018-07-09T06:21:23.596Z,60.08
2018-07-09T06:24:26.808Z,60.13
2018-07-09T06:27:30.149Z,59.81
2018-07-09T06:30:33.522Z,59.85
2018-07-09T06:33:36.719Z,59.22
2018-07-09T06:36:40.083Z,58.93
2018-07-09T06:39:43.368Z,59.07
2018-07-09T06:42:46.631Z,58.23
2018-07-09T06:45:49.907Z,58.32
2018-07-09T06:48:53.737Z,58.61
2018-07-09T06:51:56.999Z,59.07
2018-07-09T06:55:00.232Z,58.45
2018-07-09T06:58:03.539Z,58.01
2018-07-09T07:01:06.807Z,57.43
2018-07-09T07:04:10.074Z,57.35
2018-07-09T07:07:13.382Z,56.92
2018-07-09T07:10:16.688Z,56.74
2018-07-09T07:13:19.967Z,56.09
2018-07-09T07:16:23.222Z,55.72
2018-07-09T07:19:26.438Z,55.25
2018-07-09T07:22:29.667Z,56.42
2018-07-09T07:25:33.195Z,55.38
2018-07-09T07:28:36.406Z,55.76
2018-07-09T07:31:39.768Z,55.92
2018-07-09T07:34:43.174Z,55.25
2018-07-09T07:37:46.419Z,55.17
2018-07-09T07:40:49.886Z,55.15
2018-07-09T07:43:53.159Z,55.43
2018-07-09T07:46:56.581Z,55.29
2018-07-09T07:49:59.913Z,55.02
2018-07-09T07:53:03.545Z,55.03
2018-07-09T07:56:06.889Z,55.11
2018-07-09T07:59:10.120Z,54.85
2018-07-09T08:02:13.718Z,54.42
2018-07-09T08:05:17.176Z,54.39
2018-07-09T08:08:20.984Z,53.88
2018-07-09T08:11:47.729Z,53.90
2018-07-09T08:14:29.217Z,53.69
2018-07-09T08:17:33.644Z,53.40
2018-07-09T08:20:37.366Z,52.55
2018-07-09T08:23:40.710Z,52.19
2018-07-09T08:26:45.120Z,51.90
2018-07-09T08:29:48.400Z,51.81
2018-07-09T08:32:52.263Z,51.72
2018-07-09T08:35:56.387Z,51.52
2018-07-09T08:39:00.338Z,51.45
2018-07-09T08:42:03.799Z,51.17
2018-07-09T08:45:07.178Z,51.71
2018-07-09T08:48:11.165Z,49.97
2018-07-09T08:51:14.594Z,50.11
2018-07-09T08:54:17.886Z,49.86
2018-07-09T08:57:21.565Z,49.42
2018-07-09T09:00:25.923Z,49.90
2018-07-09T09:03:29.268Z,48.46
2018-07-09T09:06:35.211Z,49.33
2018-07-09T09:09:38.963Z,47.86
2018-07-09T09:12:42.601Z,46.90
2018-07-09T09:15:46.448Z,48.94
2018-07-09T09:18:51.955Z,47.91
2018-07-09T09:21:55.516Z,45.99
2018-07-09T09:24:59.109Z,44.12
2018-07-09T09:28:02.523Z,45.87
2018-07-09T09:31:06.179Z,45.29
2018-07-09T09:34:11.204Z,43.53
2018-07-09T09:37:15.058Z,40.50
2018-07-09T09:40:18.365Z,42.08
2018-07-09T09:43:21.627Z,44.00
2018-07-09T09:46:24.946Z,41.83
2018-07-09T09:49:29.390Z,41.28
2018-07-09T09:52:32.984Z,40.85
2018-07-09T09:55:36.798Z,41.12
2018-07-09T09:58:40.107Z,38.44
2018-07-09T10:01:43.423Z,38.53
2018-07-09T10:04:46.895Z,40.21
2018-07-09T10:07:50.224Z,40.11
2018-07-09T10:10:53.609Z,39.56
2018-07-09T10:13:57.590Z,41.01
2018-07-09T10:17:01.537Z,39.77
2018-07-09T10:20:04.960Z,40.27
2018-07-09T10:23:08.549Z,40.33
2018-07-09T10:26:11.822Z,39.59
2018-07-09T10:29:15.110Z,38.99
2018-07-09T10:32:18.418Z,38.33
2018-07-09T10:35:21.766Z,36.22
2018-07-09T10:38:25.200Z,36.03
2018-07-09T10:41:28.483Z,36.68
2018-07-09T10:44:31.763Z,38.13
2018-07-09T10:47:36.320Z,38.54
2018-07-09T10:50:39.778Z,38.98
2018-07-09T10:53:44.039Z,38.57
2018-07-09T10:56:47.294Z,39.88
2018-07-09T10:59:51.015Z,39.04
2018-07-09T11:02:54.302Z,41.46
2018-07-09T11:05:57.556Z,41.52
2018-07-09T11:09:00.822Z,41.90
2018-07-09T11:12:04.067Z,40.67
2018-07-09T11:15:07.323Z,41.80
2018-07-09T11:18:10.613Z,41.61
2018-07-09T11:21:13.983Z,42.20
2018-07-09T11:24:17.566Z,41.44
2018-07-09T11:27:20.832Z,42.19
2018-07-09T11:30:24.156Z,41.40
2018-07-09T11:33:27.508Z,41.07
2018-07-09T11:36:30.790Z,42.69
2018-07-09T11:39:34.153Z,41.01
2018-07-09T11:42:37.413Z,41.43
2018-07-09T11:45:40.720Z,40.74
2018-07-09T11:48:44.116Z,42.62
2018-07-09T11:51:47.499Z,39.87
2018-07-09T11:54:50.703Z,40.30
2018-07-09T11:57:54.001Z,39.97
2018-07-09T12:00:57.337Z,41.10
2018-07-09T12:04:00.764Z,41.00
2018-07-09T12:07:04.042Z,42.18
2018-07-09T12:10:07.382Z,42.79
2018-07-09T12:13:10.634Z,42.24
2018-07-09T12:16:13.906Z,43.72
2018-07-09T12:19:17.212Z,43.77
2018-07-09T12:22:20.561Z,43.22
2018-07-09T12:25:23.839Z,43.93
2018-07-09T12:28:27.277Z,43.51
2018-07-09T12:31:30.581Z,44.31
2018-07-09T12:34:33.853Z,45.28
2018-07-09T12:37:37.265Z,44.23
2018-07-09T12:40:40.574Z,45.18
2018-07-09T12:43:43.859Z,44.70
2018-07-09T12:46:47.148Z,46.11
2018-07-09T12:49:50.535Z,46.33
2018-07-09T12:52:53.769Z,46.41
2018-07-09T12:55:57.321Z,45.72
2018-07-09T12:59:00.595Z,45.44
2018-07-09T13:02:03.952Z,45.81
2018-07-09T13:05:07.762Z,46.36
2018-07-09T13:08:11.193Z,45.31
2018-07-09T13:11:14.565Z,45.67
2018-07-09T13:14:18.087Z,45.45
2018-07-09T13:17:21.277Z,47.59
2018-07-09T13:20:24.680Z,47.98
2018-07-09T13:23:27.953Z,47.35
2018-07-09T13:26:31.276Z,46.36
2018-07-09T13:29:34.590Z,46.64
2018-07-09T13:32:37.987Z,47.09
2018-07-09T13:35:41.325Z,46.26
2018-07-09T13:38:44.684Z,45.93
2018-07-09T13:41:47.948Z,45.68
2018-07-09T13:44:51.506Z,46.17
2018-07-09T13:47:54.968Z,46.08
2018-07-09T13:50:58.411Z,45.79
2018-07-09T13:54:01.793Z,45.81
2018-07-09T13:57:05.034Z,46.35
2018-07-09T14:00:08.323Z,46.25
2018-07-09T14:03:11.646Z,46.62
2018-07-09T14:06:14.870Z,48.02
2018-07-09T14:09:18.178Z,48.05
2018-07-09T14:12:21.403Z,48.77
2018-07-09T14:15:24.689Z,47.84
2018-07-09T14:18:28.130Z,49.32
2018-07-09T14:21:31.677Z,49.34
2018-07-09T14:24:35.392Z,48.76
2018-07-09T14:27:40.287Z,48.76
2018-07-09T14:30:44.055Z,48.93
2018-07-09T14:33:48.346Z,49.16
2018-07-09T14:36:52.240Z,49.51
2018-07-09T14:39:55.691Z,48.91
2018-07-09T14:42:59.027Z,49.38
2018-07-09T14:46:02.454Z,48.87
2018-07-09T14:49:06.164Z,48.97
2018-07-09T14:52:09.898Z,48.77
2018-07-09T14:55:13.563Z,48.59
2018-07-09T14:58:17.216Z,47.48
2018-07-09T15:01:22.522Z,47.11
2018-07-09T15:04:27.039Z,45.40
2018-07-09T15:07:30.742Z,45.35
2018-07-09T15:10:34.509Z,45.98
2018-07-09T15:13:38.535Z,45.15
2018-07-09T15:16:42.250Z,45.81
2018-07-09T15:19:46.071Z,44.00
2018-07-09T15:22:49.390Z,44.15
2018-07-09T15:25:52.674Z,42.93
2018-07-09T15:28:55.965Z,41.91
2018-07-09T15:32:10.767Z,41.23
2018-07-09T15:35:14.029Z,41.38
2018-07-09T15:38:17.942Z,41.06
2018-07-09T15:41:21.835Z,41.16
2018-07-09T15:44:25.206Z,41.00
2018-07-09T15:47:28.627Z,41.95
2018-07-09T15:50:31.948Z,42.09
2018-07-09T15:53:35.354Z,42.66
2018-07-09T15:56:38.757Z,41.96
2018-07-09T15:59:42.272Z,42.90
2018-07-09T16:02:45.693Z,42.28
2018-07-09T16:05:49.000Z,42.00
2018-07-09T16:08:52.745Z,42.28
2018-07-09T16:11:56.039Z,43.15
2018-07-09T16:14:59.459Z,42.92
2018-07-09T16:18:03.331Z,43.72
2018-07-09T16:21:08.142Z,42.96
2018-07-09T16:24:11.685Z,43.99
2018-07-09T16:27:15.025Z,44.02
2018-07-09T16:30:18.553Z,43.91
2018-07-09T16:33:22.260Z,43.48
2018-07-09T16:36:26.317Z,42.83
2018-07-09T16:39:30.081Z,43.15
2018-07-09T16:42:33.488Z,43.68
2018-07-09T16:45:37.211Z,43.18
2018-07-09T16:48:40.955Z,43.05
2018-07-09T16:51:44.525Z,43.94
2018-07-09T16:54:48.298Z,43.36
2018-07-09T16:57:52.941Z,43.32
2018-07-09T17:00:56.731Z,44.10
2018-07-09T17:04:00.334Z,43.52
2018-07-09T17:07:03.973Z,44.10
2018-07-09T17:10:09.160Z,43.34
2018-07-09T17:13:13.260Z,43.87
2018-07-09T17:16:17.736Z,43.73
2018-07-09T17:19:21.956Z,44.06
2018-07-09T17:22:25.794Z,43.92
2018-07-09T17:25:29.662Z,43.40
2018-07-09T17:28:33.194Z,43.67
2018-07-09T17:31:37.793Z,43.86
2018-07-09T17:34:41.625Z,44.16
2018-07-09T17:37:46.686Z,44.04
2018-07-09T17:40:52.447Z,44.71
2018-07-09T17:43:56.499Z,43.96
2018-07-09T17:47:01.720Z,43.98
2018-07-09T17:50:05.849Z,44.59
2018-07-09T17:53:09.833Z,45.49
2018-07-09T17:56:14.312Z,44.33
2018-07-09T17:59:21.226Z,44.58
2018-07-09T18:02:26.876Z,44.84
2018-07-09T18:05:31.705Z,45.59
2018-07-09T18:08:54.936Z,44.72
2018-07-09T18:12:01.581Z,45.13
2018-07-09T18:15:06.357Z,44.61
2018-07-09T18:18:12.349Z,44.79
2018-07-09T18:21:16.315Z,45.35
2018-07-09T18:24:20.824Z,44.98
2018-07-09T18:27:26.069Z,45.42
2018-07-09T18:30:30.351Z,46.08
2018-07-09T18:33:35.515Z,46.46
2018-07-09T18:36:40.062Z,45.91
2018-07-09T18:39:44.814Z,46.24
2018-07-09T18:42:49.099Z,45.46
2018-07-09T18:45:53.032Z,44.58
2018-07-09T18:48:57.050Z,44.83
2018-07-09T18:52:00.868Z,44.97
2018-07-09T18:55:05.568Z,45.38
2018-07-09T18:58:10.493Z,45.35
2018-07-09T19:01:15.237Z,44.35
2018-07-09T19:04:19.061Z,44.87
2018-07-09T19:07:23.788Z,45.27
2018-07-09T19:10:27.550Z,45.92
2018-07-09T19:13:32.367Z,45.81
2018-07-09T19:16:46.394Z,46.15
2018-07-09T19:19:55.748Z,46.49
2018-07-09T19:22:58.591Z,46.55
2018-07-09T19:26:01.042Z,46.02
2018-07-09T19:29:03.603Z,46.27
2018-07-09T19:32:06.423Z,46.33
2018-07-09T19:35:08.752Z,46.58
2018-07-09T19:38:11.239Z,46.59
2018-07-09T19:41:13.924Z,46.96
2018-07-09T19:44:16.636Z,47.13
2018-07-09T19:47:19.089Z,46.80
2018-07-09T19:50:21.550Z,46.93
2018-07-09T19:53:23.870Z,47.41
2018-07-09T19:56:26.627Z,47.27
2018-07-09T19:59:29.089Z,47.75
2018-07-09T20:02:32.135Z,47.75
2018-07-09T20:05:34.515Z,48.14
2018-07-09T20:08:42.229Z,47.77
2018-07-09T20:11:50.064Z,47.67
2018-07-09T20:14:57.843Z,48.00
2018-07-09T20:18:00.245Z,48.24
2018-07-09T20:21:02.613Z,48.74
2018-07-09T20:24:04.906Z,48.49
2018-07-09T20:27:07.367Z,48.75
2018-07-09T20:30:09.794Z,48.59
2018-07-09T20:33:12.246Z,48.91
2018-07-09T20:36:15.794Z,48.74
2018-07-09T20:39:18.143Z,48.99
2018-07-09T20:42:20.450Z,49.12
2018-07-09T20:45:22.733Z,49.01
2018-07-09T20:48:25.181Z,49.00
2018-07-09T20:51:27.554Z,49.25
2018-07-09T20:54:29.937Z,48.84
2018-07-09T20:57:32.265Z,48.94
2018-07-09T21:00:34.509Z,49.12
2018-07-09T21:03:36.839Z,48.67
2018-07-09T21:06:39.108Z,48.53
2018-07-09T21:09:41.317Z,48.95
2018-07-09T21:13:00.710Z,48.58
2018-07-09T21:16:03.243Z,49.17
2018-07-09T21:19:09.858Z,48.86
2018-07-09T21:22:12.654Z,49.60
2018-07-09T21:25:19.199Z,49.09
2018-07-09T21:28:26.115Z,49.03
2018-07-09T21:31:28.737Z,49.03
2018-07-09T21:34:31.152Z,48.90
2018-07-09T21:37:33.499Z,48.96
2018-07-09T21:40:35.696Z,49.23
2018-07-09T21:43:38.030Z,48.91
2018-07-09T21:46:40.284Z,48.84
2018-07-09T21:49:42.505Z,48.92
2018-07-09T21:52:44.796Z,49.06
2018-07-09T21:55:47.057Z,49.60
2018-07-09T21:58:49.341Z,49.46
2018-07-09T22:01:52.119Z,49.16
2018-07-09T22:04:54.416Z,49.75
2018-07-09T22:07:56.951Z,49.36
2018-07-09T22:10:59.248Z,49.72
2018-07-09T22:14:01.538Z,50.17
2018-07-09T22:17:03.737Z,50.35
2018-07-09T22:20:05.954Z,49.32
2018-07-09T22:23:08.143Z,49.85
2018-07-09T22:26:10.530Z,48.90
2018-07-09T22:29:12.765Z,49.30
2018-07-09T22:32:16.057Z,50.19
2018-07-09T22:35:20.503Z,49.16
2018-07-09T22:38:23.946Z,50.05
2018-07-09T22:41:27.354Z,50.33
2018-07-09T22:44:30.795Z,50.67
2018-07-09T22:47:34.236Z,49.73
2018-07-09T22:50:37.501Z,50.69
2018-07-09T22:53:40.833Z,50.37
2018-07-09T22:56:44.131Z,50.83
2018-07-09T22:59:47.368Z,50.43
2018-07-09T23:03:03.961Z,49.81
2018-07-09T23:06:07.139Z,50.26
2018-07-09T23:10:24.267Z,50.87
2018-07-09T23:16:56.316Z,51.00
2018-07-09T23:20:36.442Z,51.28
2018-07-09T23:23:38.643Z,50.94
2018-07-09T23:26:41.453Z,50.62
2018-07-09T23:29:43.693Z,51.10
2018-07-09T23:32:45.866Z,51.29
2018-07-09T23:35:48.075Z,51.25
2018-07-09T23:38:50.450Z,50.78
2018-07-09T23:41:52.637Z,50.94
2018-07-09T23:44:54.813Z,50.22
2018-07-09T23:47:56.964Z,50.94
2018-07-09T23:50:59.168Z,50.49
2018-07-09T23:54:01.336Z,50.53
2018-07-09T23:57:18.511Z,50.69
